This is the latest recevied weather packets stored in our database for station/object F5IOR. If no packets are shown the sender has not sent any weather packets the latest 10 day(s).
| Time | Temp. | Humidity | Pressure | Rain* | Wind** | Luminosity | Snow |
|---|---|---|---|---|---|---|---|
| 1787559934 | 17.78° C | 65% | 987.7 hPa | 20.57 mm | - | - | - |
| 1787559454 | 17.78° C | 65% | 987.7 hPa | 20.57 mm | - | - | - |
| 1787558974 | 17.78° C | 65% | 987.7 hPa | 20.57 mm | - | - | - |
| 1787558494 | 17.78° C | 63% | 987.8 hPa | 20.57 mm | - | - | - |
| 1787558254 | 17.78° C | 63% | 987.8 hPa | 20.57 mm | - | - | - |
| 1787558014 | 17.78° C | 60% | 988 hPa | 20.57 mm | - | - | - |
| 1787557774 | 17.78° C | 60% | 988 hPa | 20.57 mm | - | - | - |
| 1787557534 | 17.78° C | 60% | 988 hPa | 20.57 mm | - | - | - |
| 1787557414 | 17.78° C | 60% | 988 hPa | 20.57 mm | - | - | - |
| 1787557294 | 17.78° C | 60% | 988 hPa | 20.57 mm | - | - | - |
| 1787557174 | 17.78° C | 60% | 988 hPa | 20.57 mm | - | - | - |
| 1787557055 | 17.78° C | 60% | 988 hPa | 20.57 mm | - | - | - |
| 1787556934 | 17.78° C | 60% | 988 hPa | 20.57 mm | - | - | - |
| 1787556874 | 17.78° C | 60% | 988 hPa | 20.57 mm | - | - | - |
| 1787556814 | 17.78° C | 60% | 988 hPa | 20.57 mm | - | - | - |
| 1787511983 | 23.89° C | 37% | 989.5 hPa | 0 mm | - | - | - |
| 1787510184 | 24.44° C | 36% | 989.4 hPa | 0 mm | - | - | - |
| 1787508384 | 26.11° C | 33% | 989.3 hPa | 0 mm | - | - | - |
| 1787506583 | 26.67° C | 31% | 989.4 hPa | 0 mm | - | - | - |
| 1787504784 | 27.78° C | 28% | 989.6 hPa | 0 mm | - | - | - |
| 1787502983 | 27.78° C | 28% | 989.6 hPa | 0 mm | - | - | - |
| 1787501183 | 28.33° C | 27% | 990.1 hPa | 0 mm | - | - | - |
| 1787499384 | 28.33° C | 26% | 990.2 hPa | 0 mm | - | - | - |
| 1787497583 | 28.33° C | 26% | 990.4 hPa | 0 mm | - | - | - |
| 1787495784 | 28.33° C | 26% | 990.4 hPa | 0 mm | - | - | - |
* Rain latest hour (hover to see other rain measurements)
** Current wind speed in m/s (hover to see current wind gust speed)